Time;durP1;ratioP1;P1;durP2;ratioP2;P2;SDS_P1;SDS_P2;PMS_P1;PMS_P2;Temp;Humidity;BMP_temperature;BMP_pressure;BME280_temperature;BME280_humidity;BME280_pressure;Samples;Min_cycle;Max_cycle;Signal;HPM_P1;HPM_P2
2021/12/23 00:02:24;;;;;;;47.95;31.00;;;;;;;;;;143738;585;46020;-78
2021/12/23 00:04:52;;;;;;;54.28;34.85;;;;;;;;;;143733;566;46020;-78
2021/12/23 00:07:19;;;;;;;51.60;34.08;;;;;;;;;;143737;575;46022;-77
2021/12/23 00:10:06;;;;;;;40.12;25.50;;;;;;;;;;143735;622;46012;-78
2021/12/23 00:12:37;;;;;;;33.05;20.45;;;;;;;;;;143731;566;47020;-77
2021/12/23 00:15:09;;;;;;;36.20;19.35;;;;;;;;;;143736;599;46027;-77
2021/12/23 00:23:27;;;;;;;33.80;20.52;;;;;;;;;;143739;569;46012;-79
2021/12/23 00:26:02;;;;;;;32.83;19.87;;;;;;;;;;143739;582;46018;-77
2021/12/23 00:28:30;;;;;;;35.25;21.17;;;;;;;;;;143737;573;47020;-78
2021/12/23 00:30:59;;;;;;;38.95;22.77;;;;;;;;;;143736;574;46021;-78
2021/12/23 00:33:27;;;;;;;32.67;20.62;;;;;;;;;;143737;573;47020;-78
2021/12/23 00:35:54;;;;;;;32.90;18.75;;;;;;;;;;143734;605;47012;-77
2021/12/23 00:38:28;;;;;;;37.38;20.05;;;;;;;;;;143737;579;46023;-78
2021/12/23 00:40:57;;;;;;;;;;;;;;;;;;143741;975;46012;-78
2021/12/23 00:43:25;;;;;;;33.72;21.23;;;;;;;;;;143743;573;47021;-78
2021/12/23 00:45:52;;;;;;;34.58;21.37;;;;;;;;;;143736;586;46021;-78
2021/12/23 00:48:24;;;;;;;34.78;19.45;;;;;;;;;;143734;565;47022;-78
2021/12/23 00:50:57;;;;;;;31.25;19.05;;;;;;;;;;143737;615;46013;-77
2021/12/23 00:53:26;;;;;;;39.85;26.20;;;;;;;;;;143738;576;46021;-77
2021/12/23 00:55:55;;;;;;;41.80;25.23;;;;;;;;;;143737;577;46018;-77
2021/12/23 00:58:22;;;;;;;23.10;15.85;;;;;;;;;;143739;570;47022;-77
2021/12/23 01:00:50;;;;;;;27.55;19.20;;;;;;;;;;143741;591;46020;-78
2021/12/23 01:03:16;;;;;;;26.20;19.30;;;;;;;;;;143740;587;46020;-78
2021/12/23 01:05:43;;;;;;;27.00;17.00;;;;;;;;;;143745;606;46012;-77
2021/12/23 01:08:10;;;;;;;28.52;18.48;;;;;;;;;;143743;564;47023;-78
2021/12/23 01:10:38;;;;;;;23.98;16.37;;;;;;;;;;143742;595;46012;-77
2021/12/23 01:13:13;;;;;;;22.83;15.45;;;;;;;;;;143744;657;46020;-77
2021/12/23 01:18:43;;;;;;;19.62;11.65;;;;;;;;;;143746;591;46020;-78
2021/12/23 01:21:16;;;;;;;29.42;17.70;;;;;;;;;;143742;567;46012;-78
2021/12/23 01:23:52;;;;;;;29.00;17.50;;;;;;;;;;143741;579;47021;-78
2021/12/23 01:26:22;;;;;;;25.77;16.45;;;;;;;;;;143746;604;46012;-77
2021/12/23 01:28:52;;;;;;;23.38;15.48;;;;;;;;;;143740;580;47022;-78
2021/12/23 01:31:22;;;;;;;31.08;17.45;;;;;;;;;;143741;604;46012;-77
2021/12/23 01:33:49;;;;;;;24.27;15.13;;;;;;;;;;143741;590;47020;-79
2021/12/23 01:36:15;;;;;;;28.77;15.25;;;;;;;;;;143746;590;46013;-78
2021/12/23 01:38:44;;;;;;;27.77;18.05;;;;;;;;;;143741;602;47023;-79
2021/12/23 01:41:13;;;;;;;24.95;16.62;;;;;;;;;;143732;585;46012;-77
2021/12/23 01:43:45;;;;;;;26.90;15.73;;;;;;;;;;143743;570;47020;-78
2021/12/23 01:46:22;;;;;;;24.95;16.27;;;;;;;;;;143746;565;46012;-77
2021/12/23 01:49:01;;;;;;;;;;;;;;;;;;;;;
2021/12/23 01:51:39;;;;;;;25.45;15.68;;;;;;;;;;143741;569;47021;-77
2021/12/23 01:54:08;;;;;;;26.55;15.77;;;;;;;;;;143731;589;46020;-78
2021/12/23 01:56:45;;;;;;;29.85;14.80;;;;;;;;;;143745;566;46020;-77
2021/12/23 01:59:21;;;;;;;21.70;14.35;;;;;;;;;;143742;566;47022;-77
2021/12/23 02:01:48;;;;;;;23.98;13.70;;;;;;;;;;143734;594;46014;-77
2021/12/23 02:04:18;;;;;;;26.23;14.27;;;;;;;;;;143738;565;46020;-77
2021/12/23 02:06:47;;;;;;;26.83;15.75;;;;;;;;;;143737;603;46013;-78
2021/12/23 02:09:14;;;;;;;36.47;21.27;;;;;;;;;;143737;575;47020;-77
2021/12/23 02:11:40;;;;;;;23.42;14.60;;;;;;;;;;143736;598;46012;-78
2021/12/23 02:14:07;;;;;;;23.15;13.50;;;;;;;;;;143737;602;47020;-77
2021/12/23 02:16:34;;;;;;;21.67;13.27;;;;;;;;;;143738;609;46012;-78
2021/12/23 02:19:04;;;;;;;22.23;12.50;;;;;;;;;;143734;597;47020;-78
2021/12/23 02:21:31;;;;;;;29.83;17.70;;;;;;;;;;143736;610;46012;-78
2021/12/23 02:23:58;;;;;;;40.63;20.95;;;;;;;;;;143738;591;46020;-77
2021/12/23 02:26:24;;;;;;;23.85;13.73;;;;;;;;;;143739;696;47020;-78
2021/12/23 02:28:58;;;;;;;25.77;14.07;;;;;;;;;;143738;577;47022;-79
2021/12/23 02:31:26;;;;;;;20.00;12.43;;;;;;;;;;143737;606;46020;-77
2021/12/23 02:33:53;;;;;;;18.42;10.63;;;;;;;;;;143737;590;47018;-77
2021/12/23 02:36:20;;;;;;;48.70;25.20;;;;;;;;;;143736;603;46020;-78
2021/12/23 02:38:46;;;;;;;53.38;25.70;;;;;;;;;;143737;594;47023;-77
2021/12/23 02:41:13;;;;;;;25.10;14.20;;;;;;;;;;143735;744;46012;-77
2021/12/23 02:43:39;;;;;;;17.12;9.70;;;;;;;;;;143737;605;46020;-77
2021/12/23 02:46:09;;;;;;;14.93;9.15;;;;;;;;;;143738;566;46012;-77
2021/12/23 02:48:42;;;;;;;12.00;7.82;;;;;;;;;;143738;584;47022;-78
2021/12/23 02:51:13;;;;;;;10.23;5.17;;;;;;;;;;143736;593;46021;-78
2021/12/23 02:53:42;;;;;;;11.18;7.32;;;;;;;;;;143738;622;46020;-78
2021/12/23 02:56:21;;;;;;;9.27;7.57;;;;;;;;;;143738;581;46012;-78
2021/12/23 02:58:49;;;;;;;12.70;7.40;;;;;;;;;;143739;595;46022;-78
2021/12/23 03:01:17;;;;;;;12.48;8.05;;;;;;;;;;143738;598;46020;-78
2021/12/23 03:03:46;;;;;;;10.73;7.03;;;;;;;;;;143737;573;46050;-77
2021/12/23 03:06:13;;;;;;;12.43;8.30;;;;;;;;;;143739;589;46013;-77
2021/12/23 03:08:47;;;;;;;12.32;7.28;;;;;;;;;;143737;580;46023;-78
2021/12/23 03:11:18;;;;;;;13.77;8.52;;;;;;;;;;143738;563;46020;-77
2021/12/23 03:13:50;;;;;;;12.45;7.87;;;;;;;;;;143733;586;46021;-77
2021/12/23 03:16:24;;;;;;;14.38;8.48;;;;;;;;;;143737;574;46012;-79
2021/12/23 03:18:51;;;;;;;24.65;13.85;;;;;;;;;;143737;655;47022;-78
2021/12/23 03:21:18;;;;;;;15.23;10.25;;;;;;;;;;143737;572;46013;-77
2021/12/23 03:23:45;;;;;;;14.00;9.85;;;;;;;;;;143739;570;46020;-78
2021/12/23 03:26:14;;;;;;;19.42;11.70;;;;;;;;;;143737;565;46012;-79
2021/12/23 03:28:40;;;;;;;26.27;12.52;;;;;;;;;;143738;565;47021;-78
2021/12/23 03:31:07;;;;;;;21.30;14.68;;;;;;;;;;143736;644;46012;-78
2021/12/23 03:33:34;;;;;;;34.88;20.60;;;;;;;;;;143737;575;46020;-78
2021/12/23 03:36:01;;;;;;;21.40;13.62;;;;;;;;;;143737;594;46013;-77
2021/12/23 03:38:28;;;;;;;25.62;15.55;;;;;;;;;;143739;600;46048;-78
2021/12/23 03:40:55;;;;;;;22.60;16.12;;;;;;;;;;143732;565;46012;-77
2021/12/23 03:43:22;;;;;;;20.27;13.27;;;;;;;;;;143738;588;46021;-78
2021/12/23 03:45:50;;;;;;;17.92;12.82;;;;;;;;;;143740;596;46021;-78
2021/12/23 03:48:18;;;;;;;18.58;13.43;;;;;;;;;;143738;614;47022;-78
2021/12/23 03:50:45;;;;;;;16.98;13.32;;;;;;;;;;143737;702;47021;-78
2021/12/23 03:53:12;;;;;;;88.87;48.28;;;;;;;;;;143740;598;46020;-77
2021/12/23 03:55:40;;;;;;;84.00;42.42;;;;;;;;;;143739;566;46012;-78
2021/12/23 03:58:06;;;;;;;70.90;37.67;;;;;;;;;;143736;607;47022;-78
2021/12/23 04:00:34;;;;;;;51.80;30.33;;;;;;;;;;143738;610;46012;-78
2021/12/23 04:03:00;;;;;;;56.42;32.75;;;;;;;;;;143736;683;46014;-78
2021/12/23 04:05:27;;;;;;;50.10;30.20;;;;;;;;;;143739;608;46012;-78
2021/12/23 04:07:54;;;;;;;42.95;27.50;;;;;;;;;;143730;577;48021;-77
2021/12/23 04:10:21;;;;;;;41.15;24.30;;;;;;;;;;143738;661;46048;-78
2021/12/23 04:12:49;;;;;;;35.28;22.83;;;;;;;;;;143738;595;46021;-77
2021/12/23 04:15:17;;;;;;;36.83;23.05;;;;;;;;;;143738;647;46012;-78
2021/12/23 04:17:46;;;;;;;29.98;21.50;;;;;;;;;;143738;587;46022;-78
2021/12/23 04:20:19;;;;;;;25.05;19.08;;;;;;;;;;143737;564;46021;-78
2021/12/23 04:22:48;;;;;;;30.33;18.27;;;;;;;;;;143736;600;47020;-78
2021/12/23 04:25:17;;;;;;;40.22;23.50;;;;;;;;;;143738;574;46012;-78
2021/12/23 04:27:46;;;;;;;36.50;24.02;;;;;;;;;;143738;588;46015;-78
2021/12/23 04:30:14;;;;;;;35.67;23.58;;;;;;;;;;143736;582;46012;-78
2021/12/23 04:32:41;;;;;;;46.72;29.92;;;;;;;;;;143739;569;47020;-78
2021/12/23 04:35:09;;;;;;;66.45;39.10;;;;;;;;;;143737;603;46019;-77
2021/12/23 04:37:36;;;;;;;63.67;36.33;;;;;;;;;;143733;567;46020;-78
2021/12/23 04:40:08;;;;;;;69.93;38.65;;;;;;;;;;143737;594;46012;-78
2021/12/23 04:42:35;;;;;;;47.88;29.37;;;;;;;;;;143739;594;46021;-78
2021/12/23 04:45:03;;;;;;;33.38;22.13;;;;;;;;;;143740;589;46043;-78
2021/12/23 04:47:34;;;;;;;32.17;20.05;;;;;;;;;;143734;566;47022;-78
2021/12/23 04:50:06;;;;;;;25.62;17.25;;;;;;;;;;143734;577;46013;-78
2021/12/23 04:52:34;;;;;;;25.83;15.40;;;;;;;;;;143736;641;47022;-78
2021/12/23 04:55:01;;;;;;;16.42;12.63;;;;;;;;;;143738;585;46014;-77
2021/12/23 04:57:28;;;;;;;18.65;12.13;;;;;;;;;;143738;573;47022;-78
2021/12/23 04:59:57;;;;;;;16.35;12.32;;;;;;;;;;143738;607;46020;-77
2021/12/23 05:02:25;;;;;;;24.52;12.55;;;;;;;;;;143739;649;46020;-77
2021/12/23 05:04:51;;;;;;;23.35;12.93;;;;;;;;;;143739;658;46020;-77
2021/12/23 05:07:19;;;;;;;22.17;12.57;;;;;;;;;;143737;591;47023;-78
2021/12/23 05:09:47;;;;;;;20.83;13.48;;;;;;;;;;143738;565;47020;-78
2021/12/23 05:12:14;;;;;;;23.25;14.75;;;;;;;;;;143732;598;46021;-77
2021/12/23 05:14:41;;;;;;;26.67;15.75;;;;;;;;;;143738;589;46012;-78
2021/12/23 05:17:08;;;;;;;17.10;11.43;;;;;;;;;;143735;646;46014;-78
2021/12/23 05:19:34;;;;;;;19.33;12.48;;;;;;;;;;143736;566;46013;-78
2021/12/23 05:22:01;;;;;;;21.65;14.20;;;;;;;;;;143738;632;47021;-78
2021/12/23 05:24:31;;;;;;;21.77;13.05;;;;;;;;;;143739;567;46012;-78
2021/12/23 05:26:58;;;;;;;19.60;12.18;;;;;;;;;;143739;569;47022;-77
2021/12/23 05:29:25;;;;;;;20.02;12.07;;;;;;;;;;143739;590;46012;-77
2021/12/23 05:31:51;;;;;;;24.48;13.23;;;;;;;;;;143740;577;47020;-77
2021/12/23 05:34:19;;;;;;;25.90;19.37;;;;;;;;;;143739;618;46015;-77
2021/12/23 05:36:46;;;;;;;28.48;14.73;;;;;;;;;;143735;745;47023;-77
2021/12/23 05:39:13;;;;;;;22.90;14.85;;;;;;;;;;143738;569;46012;-76
2021/12/23 05:41:39;;;;;;;31.37;23.60;;;;;;;;;;143739;621;46021;-76
2021/12/23 05:44:08;;;;;;;28.30;16.98;;;;;;;;;;143739;569;46012;-75
2021/12/23 05:46:34;;;;;;;26.77;14.82;;;;;;;;;;143740;567;47022;-75
2021/12/23 05:49:01;;;;;;;30.23;18.48;;;;;;;;;;143737;564;46013;-77
2021/12/23 05:51:28;;;;;;;25.98;15.27;;;;;;;;;;143734;626;47018;-77
2021/12/23 05:54:00;;;;;;;22.37;14.50;;;;;;;;;;143738;680;46012;-77
2021/12/23 05:56:28;;;;;;;22.08;14.15;;;;;;;;;;143741;572;46051;-77
2021/12/23 05:58:54;;;;;;;37.53;16.42;;;;;;;;;;143739;664;46012;-77
2021/12/23 06:01:21;;;;;;;26.92;17.08;;;;;;;;;;143735;626;47020;-77
2021/12/23 06:03:49;;;;;;;25.10;17.30;;;;;;;;;;143737;593;46013;-77
2021/12/23 06:06:16;;;;;;;28.08;16.12;;;;;;;;;;143739;580;47023;-77
2021/12/23 06:08:43;;;;;;;25.73;16.95;;;;;;;;;;143735;618;47012;-78
2021/12/23 06:11:10;;;;;;;33.97;17.67;;;;;;;;;;143738;570;47020;-76
2021/12/23 06:13:37;;;;;;;36.38;21.42;;;;;;;;;;143736;565;46012;-77
2021/12/23 06:16:04;;;;;;;37.38;23.65;;;;;;;;;;143738;564;46020;-76
2021/12/23 06:18:36;;;;;;;33.53;24.87;;;;;;;;;;143737;601;46013;-77
2021/12/23 06:21:03;;;;;;;57.13;35.75;;;;;;;;;;143736;632;46014;-76
2021/12/23 06:23:30;;;;;;;47.00;31.23;;;;;;;;;;143741;603;46012;-77
2021/12/23 06:26:01;;;;;;;49.45;30.20;;;;;;;;;;143735;635;47020;-76
2021/12/23 06:28:28;;;;;;;40.58;28.00;;;;;;;;;;143738;641;46013;-77
2021/12/23 06:30:57;;;;;;;43.10;30.40;;;;;;;;;;143738;709;46020;-77
2021/12/23 06:33:24;;;;;;;41.25;30.45;;;;;;;;;;143739;592;46012;-77
2021/12/23 06:35:50;;;;;;;49.50;30.50;;;;;;;;;;143740;586;46023;-77
2021/12/23 06:38:17;;;;;;;33.17;23.55;;;;;;;;;;143737;665;46020;-76
2021/12/23 06:40:44;;;;;;;26.23;19.12;;;;;;;;;;143738;582;46048;-77
2021/12/23 06:43:11;;;;;;;33.65;20.45;;;;;;;;;;143735;659;47018;-77
2021/12/23 06:45:41;;;;;;;31.02;22.17;;;;;;;;;;143736;613;47022;-76
2021/12/23 06:48:08;;;;;;;37.20;22.23;;;;;;;;;;143739;705;46021;-76
2021/12/23 06:50:34;;;;;;;39.22;23.77;;;;;;;;;;143740;559;46021;-78
2021/12/23 06:53:02;;;;;;;47.97;34.35;;;;;;;;;;143739;594;46018;-77
2021/12/23 06:55:50;;;;;;;42.70;28.95;;;;;;;;;;143735;634;46022;-76
2021/12/23 06:58:39;;;;;;;60.63;33.63;;;;;;;;;;143739;595;46012;-77
2021/12/23 07:01:11;;;;;;;54.30;27.13;;;;;;;;;;143745;581;46020;-76
2021/12/23 07:06:24;;;;;;;31.52;23.70;;;;;;;;;;143748;564;46020;-76
2021/12/23 07:08:54;;;;;;;29.33;20.17;;;;;;;;;;143743;553;46012;-79
2021/12/23 07:11:23;;;;;;;33.25;21.30;;;;;;;;;;143743;594;46021;-78
2021/12/23 07:13:51;;;;;;;37.03;24.12;;;;;;;;;;143744;565;46012;-77
2021/12/23 07:16:18;;;;;;;36.05;24.45;;;;;;;;;;143738;595;47022;-76
2021/12/23 07:18:44;;;;;;;36.85;24.65;;;;;;;;;;143744;579;46012;-77
2021/12/23 07:21:11;;;;;;;35.83;24.77;;;;;;;;;;143736;600;46020;-76
2021/12/23 07:23:37;;;;;;;38.03;25.35;;;;;;;;;;143748;598;46020;-76
2021/12/23 07:26:04;;;;;;;35.75;23.62;;;;;;;;;;143743;566;47022;-77
2021/12/23 07:28:34;;;;;;;36.83;24.98;;;;;;;;;;143742;592;46020;-76
2021/12/23 07:31:00;;;;;;;42.45;25.25;;;;;;;;;;143746;593;46018;-77
2021/12/23 07:33:27;;;;;;;43.13;26.30;;;;;;;;;;143748;589;46020;-77
2021/12/23 07:35:55;;;;;;;32.47;22.92;;;;;;;;;;143744;566;46048;-76
2021/12/23 07:38:22;;;;;;;32.53;23.60;;;;;;;;;;143741;608;46020;-77
2021/12/23 07:40:49;;;;;;;32.50;20.27;;;;;;;;;;143732;592;46020;-77
2021/12/23 07:46:20;;;;;;;26.35;17.27;;;;;;;;;;143747;593;46020;-77
2021/12/23 07:48:53;;;;;;;35.28;17.80;;;;;;;;;;143745;582;46012;-77
2021/12/23 07:51:22;;;;;;;33.67;17.10;;;;;;;;;;143745;614;46021;-76
2021/12/23 07:53:57;;;;;;;24.60;17.45;;;;;;;;;;143749;598;45021;-77
2021/12/23 07:56:34;;;;;;;27.55;17.75;;;;;;;;;;143744;592;47021;-77
2021/12/23 07:59:06;;;;;;;29.55;19.75;;;;;;;;;;143747;622;46020;-77
2021/12/23 08:01:35;;;;;;;30.70;17.35;;;;;;;;;;143745;575;46020;-77
2021/12/23 08:04:04;;;;;;;28.80;17.87;;;;;;;;;;143740;590;46012;-77
2021/12/23 08:06:34;;;;;;;30.73;16.98;;;;;;;;;;143733;601;46023;-76
2021/12/23 08:09:00;;;;;;;36.42;19.67;;;;;;;;;;143743;579;46012;-76
2021/12/23 08:11:28;;;;;;;22.08;15.52;;;;;;;;;;143746;565;46021;-76
2021/12/23 08:13:55;;;;;;;23.08;16.15;;;;;;;;;;143746;588;46012;-76
2021/12/23 08:16:22;;;;;;;32.58;19.42;;;;;;;;;;143745;586;47022;-76
2021/12/23 08:18:56;;;;;;;26.37;17.87;;;;;;;;;;143738;712;46013;-76
2021/12/23 08:21:25;;;;;;;23.58;16.02;;;;;;;;;;143745;578;47020;-76
2021/12/23 08:23:53;;;;;;;29.90;17.50;;;;;;;;;;143746;592;46018;-76
2021/12/23 08:26:27;;;;;;;34.03;18.85;;;;;;;;;;143740;606;47022;-76
2021/12/23 08:28:54;;;;;;;29.98;18.95;;;;;;;;;;143743;591;46012;-75
2021/12/23 08:31:21;;;;;;;28.67;18.15;;;;;;;;;;143740;630;46020;-76
2021/12/23 08:33:51;;;;;;;22.15;15.20;;;;;;;;;;143746;577;46012;-75
2021/12/23 08:36:20;;;;;;;28.58;16.45;;;;;;;;;;143741;566;47020;-75
2021/12/23 08:38:50;;;;;;;37.60;16.75;;;;;;;;;;143744;579;46012;-77
2021/12/23 08:41:30;;;;;;;23.38;16.05;;;;;;;;;;143746;589;47021;-77
2021/12/23 08:43:58;;;;;;;25.50;17.17;;;;;;;;;;143745;596;46020;-77
2021/12/23 08:46:25;;;;;;;29.50;19.05;;;;;;;;;;143747;661;46022;-75
2021/12/23 08:48:52;;;;;;;27.35;18.92;;;;;;;;;;143742;598;47012;-77
2021/12/23 08:51:19;;;;;;;27.00;18.27;;;;;;;;;;143737;591;45909;-76
2021/12/23 08:53:46;;;;;;;29.40;18.92;;;;;;;;;;143748;582;46018;-76
2021/12/23 08:56:12;;;;;;;27.10;19.58;;;;;;;;;;143740;585;47022;-76
2021/12/23 08:58:40;;;;;;;25.25;16.92;;;;;;;;;;143744;570;46012;-76
2021/12/23 09:01:11;;;;;;;24.65;17.10;;;;;;;;;;143740;572;46020;-77
2021/12/23 09:03:38;;;;;;;23.33;16.70;;;;;;;;;;143747;570;45021;-77
2021/12/23 09:06:05;;;;;;;25.48;17.65;;;;;;;;;;143742;580;47023;-78
2021/12/23 09:08:33;;;;;;;27.77;16.75;;;;;;;;;;143746;582;45020;-76
2021/12/23 09:11:02;;;;;;;25.40;17.58;;;;;;;;;;143739;614;46021;-78
2021/12/23 09:13:31;;;;;;;26.00;18.50;;;;;;;;;;143747;706;45020;-80
2021/12/23 09:16:04;;;;;;;20.65;14.48;;;;;;;;;;143744;573;47020;-77
2021/12/23 09:18:33;;;;;;;25.33;16.95;;;;;;;;;;143743;604;45917;-79
2021/12/23 09:21:00;;;;;;;26.10;17.23;;;;;;;;;;143740;593;46020;-75
2021/12/23 09:23:27;;;;;;;26.25;16.77;;;;;;;;;;143750;592;45020;-76
2021/12/23 09:25:55;;;;;;;24.00;14.38;;;;;;;;;;143744;592;47022;-76
2021/12/23 09:28:40;;;;;;;26.80;16.20;;;;;;;;;;143742;610;45916;-76
2021/12/23 09:33:55;;;;;;;28.40;15.95;;;;;;;;;;143747;594;45022;-76
2021/12/23 09:36:22;;;;;;;26.12;16.90;;;;;;;;;;143742;634;47020;-76
2021/12/23 09:38:49;;;;;;;24.20;17.35;;;;;;;;;;143746;602;45914;-76
2021/12/23 09:41:19;;;;;;;21.45;16.75;;;;;;;;;;143744;598;45021;-76
2021/12/23 09:43:46;;;;;;;24.63;15.82;;;;;;;;;;143742;574;46018;-76
2021/12/23 09:46:15;;;;;;;21.52;15.95;;;;;;;;;;143741;638;47022;-77
2021/12/23 09:48:44;;;;;;;25.75;15.65;;;;;;;;;;143746;596;46012;-77
2021/12/23 09:51:13;;;;;;;21.37;16.02;;;;;;;;;;143743;695;46018;-78
2021/12/23 09:53:44;;;;;;;24.35;14.63;;;;;;;;;;143748;569;46018;-77
2021/12/23 09:56:12;;;;;;;26.40;15.82;;;;;;;;;;143740;677;47022;-77
2021/12/23 09:58:39;;;;;;;25.05;15.65;;;;;;;;;;143741;569;45914;-78
2021/12/23 10:01:07;;;;;;;25.55;16.98;;;;;;;;;;143738;573;47020;-78
2021/12/23 10:03:34;;;;;;;23.85;16.20;;;;;;;;;;143737;671;46013;-78
2021/12/23 10:06:05;;;;;;;18.70;13.13;;;;;;;;;;143739;570;46020;-78
2021/12/23 10:08:32;;;;;;;19.58;13.85;;;;;;;;;;143734;583;46012;-76
2021/12/23 10:11:20;;;;;;;19.87;13.90;;;;;;;;;;143735;612;47021;-77
2021/12/23 10:30:51;;;;;;;29.65;12.30;;;;;;;;;;143738;585;46048;-78
2021/12/23 10:38:56;;;;;;;19.73;14.43;;;;;;;;;;143738;577;47024;-79
2021/12/23 10:41:25;;;;;;;28.65;19.30;;;;;;;;;;143736;599;46013;-79
2021/12/23 10:44:05;;;;;;;43.72;25.25;;;;;;;;;;143736;608;47020;-76
2021/12/23 10:46:47;;;;;;;33.22;18.12;;;;;;;;;;143739;578;46012;-79
2021/12/23 10:49:31;;;;;;;21.37;13.50;;;;;;;;;;143740;564;48023;-79
2021/12/23 10:58:06;;;;;;;20.80;12.98;;;;;;;;;;143739;622;46020;-77
2021/12/23 11:00:38;;;;;;;23.65;15.32;;;;;;;;;;143738;580;47022;-77
2021/12/23 11:03:33;;;;;;;26.35;13.52;;;;;;;;;;143736;591;46013;-77
2021/12/23 11:06:12;;;;;;;25.58;14.20;;;;;;;;;;143731;589;46020;-77
2021/12/23 11:27:19;;;;;;;23.67;12.77;;;;;;;;;;143735;623;46015;-78
2021/12/23 11:37:09;;;;;;;12.37;10.40;;;;;;;;;;143738;584;46020;-76
2021/12/23 11:42:58;;;;;;;16.42;10.93;;;;;;;;;;143738;626;46012;-76
2021/12/23 11:45:20;;;;;;;16.42;9.75;;;;;;;;;;143738;570;46020;-75
2021/12/23 11:47:47;;;;;;;12.20;9.45;;;;;;;;;;143733;617;49021;-76
2021/12/23 11:50:19;;;;;;;14.52;9.77;;;;;;;;;;143738;605;47020;-76
2021/12/23 11:52:47;;;;;;;15.02;11.00;;;;;;;;;;143737;571;46020;-76
2021/12/23 11:55:14;;;;;;;15.15;9.15;;;;;;;;;;143737;564;47022;-75
2021/12/23 11:57:42;;;;;;;15.23;9.70;;;;;;;;;;143730;565;46012;-74
2021/12/23 12:00:18;;;;;;;20.80;14.13;;;;;;;;;;143737;594;46020;-76
2021/12/23 12:03:01;;;;;;;21.70;13.90;;;;;;;;;;143737;590;47018;-74
2021/12/23 12:05:29;;;;;;;25.83;16.40;;;;;;;;;;143736;579;47022;-75
2021/12/23 12:08:13;;;;;;;16.67;12.52;;;;;;;;;;143734;625;46012;-76
2021/12/23 12:10:42;;;;;;;20.55;13.77;;;;;;;;;;143736;593;47021;-75
2021/12/23 12:13:11;;;;;;;19.77;13.25;;;;;;;;;;143737;602;46012;-75
2021/12/23 12:15:48;;;;;;;17.17;10.00;;;;;;;;;;143738;572;47022;-75
2021/12/23 12:18:24;;;;;;;15.13;10.35;;;;;;;;;;143735;591;46012;-75
2021/12/23 12:21:02;;;;;;;15.77;10.73;;;;;;;;;;143736;608;46910;-75
2021/12/23 12:23:40;;;;;;;12.45;8.48;;;;;;;;;;143738;648;46019;-76
2021/12/23 12:26:12;;;;;;;15.32;10.70;;;;;;;;;;143736;628;46023;-75
2021/12/23 12:28:47;;;;;;;14.43;9.32;;;;;;;;;;143736;638;46012;-75
2021/12/23 12:31:25;;;;;;;11.95;9.73;;;;;;;;;;143739;578;47020;-75
2021/12/23 12:34:06;;;;;;;17.90;10.10;;;;;;;;;;143736;579;46012;-75
2021/12/23 12:36:40;;;;;;;11.15;8.27;;;;;;;;;;143738;607;47022;-75
2021/12/23 12:39:34;;;;;;;16.00;9.27;;;;;;;;;;143739;600;46021;-76
2021/12/23 12:42:05;;;;;;;14.87;9.23;;;;;;;;;;143731;581;46014;-75
2021/12/23 12:44:45;;;;;;;24.55;9.05;;;;;;;;;;143739;604;46012;-75
2021/12/23 12:47:24;;;;;;;13.50;9.95;;;;;;;;;;143739;585;46021;-78
2021/12/23 12:50:19;;;;;;;13.50;9.68;;;;;;;;;;143734;642;46012;-76
2021/12/23 12:52:51;;;;;;;12.60;9.45;;;;;;;;;;143735;675;46020;-76
2021/12/23 12:55:24;;;;;;;13.25;7.62;;;;;;;;;;143738;592;46018;-76
2021/12/23 12:57:52;;;;;;;;;;;;;;;;;;143742;982;47022;-78
2021/12/23 13:00:42;;;;;;;14.85;9.35;;;;;;;;;;143740;576;47010;-77
2021/12/23 13:03:21;;;;;;;14.68;10.15;;;;;;;;;;143736;570;47020;-76
2021/12/23 13:05:53;;;;;;;14.95;8.48;;;;;;;;;;143737;566;46012;-79
2021/12/23 13:08:40;;;;;;;14.10;8.60;;;;;;;;;;143735;652;47020;-76
2021/12/23 13:11:26;;;;;;;12.82;9.60;;;;;;;;;;143734;604;46012;-77
2021/12/23 13:14:04;;;;;;;12.27;7.57;;;;;;;;;;143739;577;46020;-76
2021/12/23 13:16:31;;;;;;;10.50;8.20;;;;;;;;;;143738;579;46012;-76
2021/12/23 13:19:34;;;;;;;15.32;8.68;;;;;;;;;;143727;609;46023;-76
2021/12/23 13:22:17;;;;;;;13.75;8.88;;;;;;;;;;143737;577;46012;-76
2021/12/23 13:24:56;;;;;;;11.23;8.88;;;;;;;;;;143742;566;45021;-76
2021/12/23 13:27:28;;;;;;;19.85;13.32;;;;;;;;;;143743;698;46018;-78
2021/12/23 13:30:05;;;;;;;10.85;8.65;;;;;;;;;;143741;581;45022;-76
2021/12/23 13:32:32;;;;;;;11.60;8.38;;;;;;;;;;143738;564;46020;-77
2021/12/23 13:35:18;;;;;;;13.40;8.75;;;;;;;;;;143739;575;46020;-77
2021/12/23 13:37:51;;;;;;;13.05;8.80;;;;;;;;;;143733;569;46018;-78
2021/12/23 13:40:38;;;;;;;10.85;7.85;;;;;;;;;;143738;615;46020;-76
2021/12/23 13:43:31;;;;;;;18.10;9.75;;;;;;;;;;143735;588;46043;-77
2021/12/23 13:46:09;;;;;;;18.60;12.75;;;;;;;;;;143732;654;46019;-78
2021/12/23 13:48:55;;;;;;;17.60;11.77;;;;;;;;;;143737;565;47020;-77
2021/12/23 13:51:25;;;;;;;13.90;9.57;;;;;;;;;;143738;614;47022;-77
2021/12/23 13:54:16;;;;;;;11.30;8.88;;;;;;;;;;143734;609;46021;-76
2021/12/23 13:56:52;;;;;;;11.12;8.80;;;;;;;;;;143738;673;47018;-78
2021/12/23 13:59:22;;;;;;;12.13;8.38;;;;;;;;;;143737;641;46012;-77
2021/12/23 14:02:19;;;;;;;10.63;6.93;;;;;;;;;;143737;619;47023;-77
2021/12/23 14:05:03;;;;;;;12.77;8.30;;;;;;;;;;143735;587;46020;-76
2021/12/23 14:07:38;;;;;;;11.70;8.98;;;;;;;;;;143739;621;46020;-75
2021/12/23 14:10:09;;;;;;;10.55;9.13;;;;;;;;;;143739;626;46018;-76
2021/12/23 14:13:13;;;;;;;16.35;9.95;;;;;;;;;;143735;564;46908;-77
2021/12/23 14:15:44;;;;;;;11.07;8.70;;;;;;;;;;143734;609;46012;-76
2021/12/23 14:18:44;;;;;;;10.10;7.20;;;;;;;;;;143737;579;46047;-77
2021/12/23 14:24:08;;;;;;;11.60;8.50;;;;;;;;;;143737;661;46021;-77
2021/12/23 14:26:36;;;;;;;8.40;6.62;;;;;;;;;;143734;581;46012;-77
2021/12/23 14:29:18;;;;;;;9.13;7.60;;;;;;;;;;143733;583;46020;-76
2021/12/23 14:31:48;;;;;;;10.05;6.68;;;;;;;;;;143736;589;46012;-76
2021/12/23 14:34:32;;;;;;;12.37;7.07;;;;;;;;;;143736;647;47022;-76
2021/12/23 14:36:59;;;;;;;13.18;7.35;;;;;;;;;;143736;591;46020;-76
2021/12/23 14:39:28;;;;;;;17.48;9.20;;;;;;;;;;143731;578;46018;-76
2021/12/23 14:42:12;;;;;;;14.23;7.72;;;;;;;;;;143735;605;46012;-77
2021/12/23 14:44:44;;;;;;;10.85;8.60;;;;;;;;;;143737;594;47022;-76
2021/12/23 14:47:28;;;;;;;10.20;8.20;;;;;;;;;;143736;642;46013;-76
2021/12/23 14:50:15;;;;;;;12.10;8.65;;;;;;;;;;143737;598;46020;-76
2021/12/23 14:52:53;;;;;;;14.87;11.20;;;;;;;;;;143736;627;46019;-75
2021/12/23 14:55:23;;;;;;;27.98;12.95;;;;;;;;;;143737;596;48023;-76
2021/12/23 14:58:13;;;;;;;22.83;16.48;;;;;;;;;;143737;579;46012;-75
2021/12/23 15:00:45;;;;;;;19.62;14.80;;;;;;;;;;143736;573;47020;-75
2021/12/23 15:03:25;;;;;;;22.73;16.58;;;;;;;;;;143736;594;46012;-77
2021/12/23 15:05:55;;;;;;;25.40;16.83;;;;;;;;;;143731;590;46022;-75
2021/12/23 15:08:29;;;;;;;23.98;16.95;;;;;;;;;;143736;589;46013;-75
2021/12/23 15:11:09;;;;;;;22.00;16.98;;;;;;;;;;143736;566;46012;-76
2021/12/23 15:13:44;;;;;;;26.50;17.55;;;;;;;;;;143738;645;46012;-76
2021/12/23 15:16:28;;;;;;;28.27;17.67;;;;;;;;;;143739;593;46022;-76
2021/12/23 15:19:20;;;;;;;25.95;18.83;;;;;;;;;;143735;582;46012;-75
2021/12/23 15:21:53;;;;;;;33.63;18.48;;;;;;;;;;143737;564;46020;-76
2021/12/23 15:24:35;;;;;;;33.75;20.50;;;;;;;;;;143736;625;46013;-75
2021/12/23 15:27:06;;;;;;;39.92;21.58;;;;;;;;;;143736;628;47022;-75
2021/12/23 15:29:46;;;;;;;41.22;21.15;;;;;;;;;;143736;650;46012;-77
2021/12/23 15:32:28;;;;;;;31.00;19.92;;;;;;;;;;143735;564;46021;-76
2021/12/23 15:35:06;;;;;;;31.73;19.00;;;;;;;;;;143735;576;46024;-76
2021/12/23 15:37:39;;;;;;;26.20;17.70;;;;;;;;;;143738;588;47022;-77
2021/12/23 15:40:12;;;;;;;24.87;15.73;;;;;;;;;;143734;573;46020;-76
2021/12/23 15:42:39;;;;;;;21.15;16.45;;;;;;;;;;143736;604;47020;-75
2021/12/23 15:45:06;;;;;;;26.55;20.35;;;;;;;;;;143737;649;46010;-75
2021/12/23 15:47:33;;;;;;;50.12;36.08;;;;;;;;;;143737;635;47023;-76
2021/12/23 15:50:02;;;;;;;59.10;42.33;;;;;;;;;;143734;633;46020;-75
2021/12/23 15:52:29;;;;;;;71.22;48.17;;;;;;;;;;143737;575;46021;-75
2021/12/23 15:54:57;;;;;;;82.72;53.67;;;;;;;;;;143739;570;46021;-76
2021/12/23 15:57:24;;;;;;;77.62;54.55;;;;;;;;;;143734;565;46020;-75
2021/12/23 15:59:52;;;;;;;78.30;55.90;;;;;;;;;;143742;604;45915;-75
2021/12/23 16:02:21;;;;;;;86.43;58.22;;;;;;;;;;143737;569;46021;-74
2021/12/23 16:07:45;;;;;;;82.90;54.22;;;;;;;;;;143738;640;46024;-75